sensor_id;sensor_type;location;lat;lon;timestamp;P1;durP1;ratioP1;P2;durP2;ratioP2
3779;SDS011;1905;52.482;9.802;2024-02-21T00:01:51;24.47;;;11.53;;
3779;SDS011;1905;52.482;9.802;2024-02-21T00:04:21;31.50;;;11.63;;
3779;SDS011;1905;52.482;9.802;2024-02-21T00:06:49;20.60;;;10.10;;
3779;SDS011;1905;52.482;9.802;2024-02-21T00:09:18;26.33;;;11.73;;
3779;SDS011;1905;52.482;9.802;2024-02-21T00:11:46;23.70;;;9.80;;
3779;SDS011;1905;52.482;9.802;2024-02-21T00:14:14;21.50;;;10.57;;
3779;SDS011;1905;52.482;9.802;2024-02-21T00:16:43;29.40;;;11.37;;
3779;SDS011;1905;52.482;9.802;2024-02-21T00:19:11;24.37;;;11.37;;
3779;SDS011;1905;52.482;9.802;2024-02-21T00:21:42;24.93;;;10.97;;
3779;SDS011;1905;52.482;9.802;2024-02-21T00:24:11;22.20;;;9.33;;
3779;SDS011;1905;52.482;9.802;2024-02-21T00:26:39;28.70;;;13.20;;
3779;SDS011;1905;52.482;9.802;2024-02-21T00:29:07;27.37;;;11.40;;
3779;SDS011;1905;52.482;9.802;2024-02-21T00:31:36;25.40;;;11.83;;
3779;SDS011;1905;52.482;9.802;2024-02-21T00:34:04;26.47;;;10.50;;
3779;SDS011;1905;52.482;9.802;2024-02-21T00:36:32;25.83;;;11.90;;
3779;SDS011;1905;52.482;9.802;2024-02-21T00:39:02;25.50;;;11.23;;
3779;SDS011;1905;52.482;9.802;2024-02-21T00:41:30;22.43;;;10.70;;
3779;SDS011;1905;52.482;9.802;2024-02-21T00:43:59;35.07;;;13.13;;
3779;SDS011;1905;52.482;9.802;2024-02-21T00:46:27;23.73;;;12.33;;
3779;SDS011;1905;52.482;9.802;2024-02-21T00:48:55;30.77;;;11.47;;
3779;SDS011;1905;52.482;9.802;2024-02-21T00:51:23;26.70;;;10.00;;
3779;SDS011;1905;52.482;9.802;2024-02-21T00:53:52;25.47;;;10.93;;
3779;SDS011;1905;52.482;9.802;2024-02-21T00:56:22;24.33;;;11.13;;
3779;SDS011;1905;52.482;9.802;2024-02-21T00:58:50;27.63;;;12.70;;
3779;SDS011;1905;52.482;9.802;2024-02-21T01:01:21;30.13;;;12.77;;
3779;SDS011;1905;52.482;9.802;2024-02-21T01:03:50;28.80;;;13.30;;
3779;SDS011;1905;52.482;9.802;2024-02-21T01:06:20;24.07;;;10.57;;
3779;SDS011;1905;52.482;9.802;2024-02-21T01:08:50;32.73;;;13.67;;
3779;SDS011;1905;52.482;9.802;2024-02-21T01:11:18;27.53;;;12.43;;
3779;SDS011;1905;52.482;9.802;2024-02-21T01:13:48;29.87;;;12.43;;
3779;SDS011;1905;52.482;9.802;2024-02-21T01:16:17;33.17;;;13.77;;
3779;SDS011;1905;52.482;9.802;2024-02-21T01:18:45;29.23;;;14.03;;
3779;SDS011;1905;52.482;9.802;2024-02-21T01:21:13;33.53;;;13.33;;
3779;SDS011;1905;52.482;9.802;2024-02-21T01:23:42;29.07;;;12.20;;
3779;SDS011;1905;52.482;9.802;2024-02-21T01:26:10;28.73;;;12.07;;
3779;SDS011;1905;52.482;9.802;2024-02-21T01:28:40;23.40;;;11.73;;
3779;SDS011;1905;52.482;9.802;2024-02-21T01:31:10;28.13;;;13.00;;
3779;SDS011;1905;52.482;9.802;2024-02-21T01:33:39;29.07;;;11.93;;
3779;SDS011;1905;52.482;9.802;2024-02-21T01:36:09;23.30;;;11.57;;
3779;SDS011;1905;52.482;9.802;2024-02-21T01:38:37;23.80;;;11.60;;
3779;SDS011;1905;52.482;9.802;2024-02-21T01:41:05;22.50;;;11.53;;
3779;SDS011;1905;52.482;9.802;2024-02-21T01:43:34;29.17;;;13.03;;
3779;SDS011;1905;52.482;9.802;2024-02-21T01:46:02;23.53;;;12.47;;
3779;SDS011;1905;52.482;9.802;2024-02-21T01:48:32;26.70;;;11.13;;
3779;SDS011;1905;52.482;9.802;2024-02-21T01:51:04;26.60;;;11.73;;
3779;SDS011;1905;52.482;9.802;2024-02-21T01:53:34;30.17;;;11.57;;
3779;SDS011;1905;52.482;9.802;2024-02-21T01:56:04;27.30;;;11.63;;
3779;SDS011;1905;52.482;9.802;2024-02-21T01:58:34;40.03;;;13.10;;
3779;SDS011;1905;52.482;9.802;2024-02-21T02:01:04;23.70;;;10.77;;
3779;SDS011;1905;52.482;9.802;2024-02-21T02:03:34;24.47;;;11.70;;
3779;SDS011;1905;52.482;9.802;2024-02-21T02:06:03;28.20;;;12.90;;
3779;SDS011;1905;52.482;9.802;2024-02-21T02:08:32;23.97;;;10.00;;
3779;SDS011;1905;52.482;9.802;2024-02-21T02:11:01;25.27;;;11.63;;
3779;SDS011;1905;52.482;9.802;2024-02-21T02:13:30;26.10;;;11.70;;
3779;SDS011;1905;52.482;9.802;2024-02-21T02:15:59;27.17;;;11.93;;
3779;SDS011;1905;52.482;9.802;2024-02-21T02:18:27;26.33;;;12.10;;
3779;SDS011;1905;52.482;9.802;2024-02-21T02:20:57;26.53;;;11.53;;
3779;SDS011;1905;52.482;9.802;2024-02-21T02:23:27;28.83;;;12.17;;
3779;SDS011;1905;52.482;9.802;2024-02-21T02:25:57;23.53;;;10.50;;
3779;SDS011;1905;52.482;9.802;2024-02-21T02:28:26;25.27;;;11.03;;
3779;SDS011;1905;52.482;9.802;2024-02-21T02:30:55;23.77;;;11.10;;
3779;SDS011;1905;52.482;9.802;2024-02-21T02:33:23;30.13;;;11.67;;
3779;SDS011;1905;52.482;9.802;2024-02-21T02:35:53;25.97;;;11.70;;
3779;SDS011;1905;52.482;9.802;2024-02-21T02:38:22;24.77;;;11.17;;
3779;SDS011;1905;52.482;9.802;2024-02-21T02:40:51;22.63;;;11.40;;
3779;SDS011;1905;52.482;9.802;2024-02-21T02:43:20;28.93;;;12.53;;
3779;SDS011;1905;52.482;9.802;2024-02-21T02:45:48;26.80;;;11.87;;
3779;SDS011;1905;52.482;9.802;2024-02-21T02:48:16;23.90;;;10.47;;
3779;SDS011;1905;52.482;9.802;2024-02-21T02:50:47;28.67;;;12.07;;
3779;SDS011;1905;52.482;9.802;2024-02-21T02:53:16;24.87;;;11.30;;
3779;SDS011;1905;52.482;9.802;2024-02-21T02:55:44;25.20;;;10.60;;
3779;SDS011;1905;52.482;9.802;2024-02-21T02:58:13;28.73;;;12.90;;
3779;SDS011;1905;52.482;9.802;2024-02-21T03:00:41;27.87;;;12.43;;
3779;SDS011;1905;52.482;9.802;2024-02-21T03:03:10;24.50;;;12.50;;
3779;SDS011;1905;52.482;9.802;2024-02-21T03:05:39;23.63;;;10.10;;
3779;SDS011;1905;52.482;9.802;2024-02-21T03:08:07;19.63;;;9.97;;
3779;SDS011;1905;52.482;9.802;2024-02-21T03:10:35;24.97;;;12.20;;
3779;SDS011;1905;52.482;9.802;2024-02-21T03:13:03;26.57;;;10.33;;
3779;SDS011;1905;52.482;9.802;2024-02-21T03:15:33;26.63;;;13.20;;
3779;SDS011;1905;52.482;9.802;2024-02-21T03:18:01;23.90;;;11.23;;
3779;SDS011;1905;52.482;9.802;2024-02-21T03:20:30;29.33;;;12.37;;
3779;SDS011;1905;52.482;9.802;2024-02-21T03:22:58;25.43;;;11.30;;
3779;SDS011;1905;52.482;9.802;2024-02-21T03:25:27;27.80;;;11.50;;
3779;SDS011;1905;52.482;9.802;2024-02-21T03:27:55;23.73;;;10.47;;
3779;SDS011;1905;52.482;9.802;2024-02-21T03:30:23;27.60;;;11.80;;
3779;SDS011;1905;52.482;9.802;2024-02-21T03:32:53;31.93;;;11.30;;
3779;SDS011;1905;52.482;9.802;2024-02-21T03:35:21;25.37;;;10.57;;
3779;SDS011;1905;52.482;9.802;2024-02-21T03:37:53;23.77;;;11.17;;
3779;SDS011;1905;52.482;9.802;2024-02-21T03:40:21;32.30;;;12.07;;
3779;SDS011;1905;52.482;9.802;2024-02-21T03:42:49;24.43;;;10.77;;
3779;SDS011;1905;52.482;9.802;2024-02-21T03:45:18;28.67;;;12.30;;
3779;SDS011;1905;52.482;9.802;2024-02-21T03:47:46;29.80;;;11.00;;
3779;SDS011;1905;52.482;9.802;2024-02-21T03:50:16;25.27;;;11.07;;
3779;SDS011;1905;52.482;9.802;2024-02-21T03:52:45;24.37;;;12.13;;
3779;SDS011;1905;52.482;9.802;2024-02-21T03:55:13;24.40;;;10.20;;
3779;SDS011;1905;52.482;9.802;2024-02-21T03:57:41;29.80;;;12.77;;
3779;SDS011;1905;52.482;9.802;2024-02-21T04:00:09;27.23;;;11.40;;
3779;SDS011;1905;52.482;9.802;2024-02-21T04:02:38;26.10;;;11.13;;
3779;SDS011;1905;52.482;9.802;2024-02-21T04:05:06;25.63;;;11.90;;
3779;SDS011;1905;52.482;9.802;2024-02-21T04:07:40;19.40;;;11.20;;
3779;SDS011;1905;52.482;9.802;2024-02-21T04:10:08;27.57;;;12.10;;
3779;SDS011;1905;52.482;9.802;2024-02-21T04:12:37;26.23;;;11.77;;
3779;SDS011;1905;52.482;9.802;2024-02-21T04:15:05;25.50;;;12.17;;
3779;SDS011;1905;52.482;9.802;2024-02-21T04:17:34;27.10;;;12.27;;
3779;SDS011;1905;52.482;9.802;2024-02-21T04:20:03;29.47;;;12.03;;
3779;SDS011;1905;52.482;9.802;2024-02-21T04:22:34;22.07;;;12.20;;
3779;SDS011;1905;52.482;9.802;2024-02-21T04:25:04;24.23;;;11.50;;
3779;SDS011;1905;52.482;9.802;2024-02-21T04:27:33;22.60;;;11.30;;
3779;SDS011;1905;52.482;9.802;2024-02-21T04:30:01;22.80;;;11.50;;
3779;SDS011;1905;52.482;9.802;2024-02-21T04:32:30;29.87;;;11.33;;
3779;SDS011;1905;52.482;9.802;2024-02-21T04:34:58;21.60;;;11.13;;
3779;SDS011;1905;52.482;9.802;2024-02-21T04:37:27;29.60;;;11.83;;
3779;SDS011;1905;52.482;9.802;2024-02-21T04:39:54;28.00;;;11.43;;
3779;SDS011;1905;52.482;9.802;2024-02-21T04:42:24;28.83;;;13.10;;
3779;SDS011;1905;52.482;9.802;2024-02-21T04:44:52;27.17;;;11.30;;
3779;SDS011;1905;52.482;9.802;2024-02-21T04:47:20;24.50;;;10.50;;
3779;SDS011;1905;52.482;9.802;2024-02-21T04:49:50;27.33;;;11.30;;
3779;SDS011;1905;52.482;9.802;2024-02-21T04:52:19;23.97;;;11.53;;
3779;SDS011;1905;52.482;9.802;2024-02-21T04:54:47;27.30;;;12.53;;
3779;SDS011;1905;52.482;9.802;2024-02-21T04:57:15;26.07;;;10.50;;
3779;SDS011;1905;52.482;9.802;2024-02-21T04:59:45;25.53;;;12.13;;
3779;SDS011;1905;52.482;9.802;2024-02-21T05:02:14;23.87;;;11.33;;
3779;SDS011;1905;52.482;9.802;2024-02-21T05:04:42;31.97;;;15.27;;
3779;SDS011;1905;52.482;9.802;2024-02-21T05:07:11;24.63;;;12.53;;
3779;SDS011;1905;52.482;9.802;2024-02-21T05:09:39;30.60;;;12.23;;
3779;SDS011;1905;52.482;9.802;2024-02-21T05:12:09;30.10;;;12.40;;
3779;SDS011;1905;52.482;9.802;2024-02-21T05:14:37;29.93;;;15.00;;
3779;SDS011;1905;52.482;9.802;2024-02-21T05:17:06;28.70;;;12.07;;
3779;SDS011;1905;52.482;9.802;2024-02-21T05:19:35;31.50;;;13.83;;
3779;SDS011;1905;52.482;9.802;2024-02-21T05:22:03;22.90;;;12.07;;
3779;SDS011;1905;52.482;9.802;2024-02-21T05:24:32;29.60;;;13.40;;
3779;SDS011;1905;52.482;9.802;2024-02-21T05:27:00;26.60;;;13.00;;
3779;SDS011;1905;52.482;9.802;2024-02-21T05:29:28;27.90;;;13.30;;
3779;SDS011;1905;52.482;9.802;2024-02-21T05:31:56;27.17;;;13.70;;
3779;SDS011;1905;52.482;9.802;2024-02-21T05:34:27;39.23;;;12.87;;
3779;SDS011;1905;52.482;9.802;2024-02-21T05:36:55;26.90;;;12.37;;
3779;SDS011;1905;52.482;9.802;2024-02-21T05:39:24;29.07;;;13.30;;
3779;SDS011;1905;52.482;9.802;2024-02-21T05:41:52;30.47;;;13.23;;
3779;SDS011;1905;52.482;9.802;2024-02-21T05:44:21;28.30;;;11.77;;
3779;SDS011;1905;52.482;9.802;2024-02-21T05:46:49;25.20;;;12.90;;
3779;SDS011;1905;52.482;9.802;2024-02-21T05:49:18;31.13;;;13.13;;
3779;SDS011;1905;52.482;9.802;2024-02-21T05:51:47;27.77;;;11.30;;
3779;SDS011;1905;52.482;9.802;2024-02-21T05:54:15;28.07;;;13.23;;
3779;SDS011;1905;52.482;9.802;2024-02-21T05:56:44;27.83;;;12.10;;
3779;SDS011;1905;52.482;9.802;2024-02-21T05:59:13;30.10;;;13.27;;
3779;SDS011;1905;52.482;9.802;2024-02-21T06:01:42;36.93;;;15.03;;
3779;SDS011;1905;52.482;9.802;2024-02-21T06:04:10;22.10;;;11.50;;
3779;SDS011;1905;52.482;9.802;2024-02-21T06:06:38;28.30;;;13.77;;
3779;SDS011;1905;52.482;9.802;2024-02-21T06:09:08;23.80;;;11.63;;
3779;SDS011;1905;52.482;9.802;2024-02-21T06:11:36;28.10;;;12.73;;
3779;SDS011;1905;52.482;9.802;2024-02-21T06:14:04;31.20;;;15.20;;
3779;SDS011;1905;52.482;9.802;2024-02-21T06:16:33;24.87;;;13.70;;
3779;SDS011;1905;52.482;9.802;2024-02-21T06:19:02;31.27;;;14.37;;
3779;SDS011;1905;52.482;9.802;2024-02-21T06:21:35;23.23;;;13.30;;
3779;SDS011;1905;52.482;9.802;2024-02-21T06:24:04;25.80;;;11.80;;
3779;SDS011;1905;52.482;9.802;2024-02-21T06:26:33;28.57;;;14.23;;
3779;SDS011;1905;52.482;9.802;2024-02-21T06:29:02;29.60;;;13.77;;
3779;SDS011;1905;52.482;9.802;2024-02-21T06:31:30;26.20;;;13.90;;
3779;SDS011;1905;52.482;9.802;2024-02-21T06:33:59;23.40;;;12.10;;
3779;SDS011;1905;52.482;9.802;2024-02-21T06:36:27;30.67;;;12.60;;
3779;SDS011;1905;52.482;9.802;2024-02-21T06:38:55;25.37;;;11.37;;
3779;SDS011;1905;52.482;9.802;2024-02-21T06:41:23;31.97;;;12.30;;
3779;SDS011;1905;52.482;9.802;2024-02-21T06:43:53;31.60;;;13.60;;
3779;SDS011;1905;52.482;9.802;2024-02-21T06:46:24;31.10;;;13.00;;
3779;SDS011;1905;52.482;9.802;2024-02-21T06:48:53;32.00;;;14.03;;
3779;SDS011;1905;52.482;9.802;2024-02-21T06:51:23;25.17;;;13.23;;
3779;SDS011;1905;52.482;9.802;2024-02-21T06:53:52;28.50;;;12.43;;
3779;SDS011;1905;52.482;9.802;2024-02-21T06:56:20;29.43;;;13.50;;
3779;SDS011;1905;52.482;9.802;2024-02-21T06:58:55;26.10;;;13.30;;
3779;SDS011;1905;52.482;9.802;2024-02-21T07:01:24;29.70;;;11.93;;
3779;SDS011;1905;52.482;9.802;2024-02-21T07:03:52;27.07;;;13.77;;
3779;SDS011;1905;52.482;9.802;2024-02-21T07:06:22;29.73;;;13.10;;
3779;SDS011;1905;52.482;9.802;2024-02-21T07:08:50;26.47;;;13.53;;
3779;SDS011;1905;52.482;9.802;2024-02-21T07:11:18;24.30;;;12.50;;
3779;SDS011;1905;52.482;9.802;2024-02-21T07:13:47;30.77;;;13.40;;
3779;SDS011;1905;52.482;9.802;2024-02-21T07:16:17;24.13;;;12.03;;
3779;SDS011;1905;52.482;9.802;2024-02-21T07:18:45;26.90;;;13.10;;
3779;SDS011;1905;52.482;9.802;2024-02-21T07:21:14;25.23;;;12.97;;
3779;SDS011;1905;52.482;9.802;2024-02-21T07:23:42;32.37;;;12.73;;
3779;SDS011;1905;52.482;9.802;2024-02-21T07:26:12;22.70;;;12.00;;
3779;SDS011;1905;52.482;9.802;2024-02-21T07:28:40;25.90;;;11.83;;
3779;SDS011;1905;52.482;9.802;2024-02-21T07:31:08;28.60;;;13.30;;
3779;SDS011;1905;52.482;9.802;2024-02-21T07:33:37;31.43;;;12.90;;
3779;SDS011;1905;52.482;9.802;2024-02-21T07:36:06;27.60;;;12.40;;
3779;SDS011;1905;52.482;9.802;2024-02-21T07:38:35;28.10;;;12.20;;
3779;SDS011;1905;52.482;9.802;2024-02-21T07:41:03;25.07;;;11.87;;
3779;SDS011;1905;52.482;9.802;2024-02-21T07:43:32;25.13;;;14.13;;
3779;SDS011;1905;52.482;9.802;2024-02-21T07:46:00;31.40;;;13.30;;
3779;SDS011;1905;52.482;9.802;2024-02-21T07:48:29;27.10;;;12.50;;
3779;SDS011;1905;52.482;9.802;2024-02-21T07:51:02;31.37;;;12.60;;
3779;SDS011;1905;52.482;9.802;2024-02-21T07:53:31;36.83;;;13.37;;
3779;SDS011;1905;52.482;9.802;2024-02-21T07:55:59;32.20;;;13.20;;
3779;SDS011;1905;52.482;9.802;2024-02-21T07:58:28;26.27;;;11.90;;
3779;SDS011;1905;52.482;9.802;2024-02-21T08:00:55;24.20;;;11.50;;
3779;SDS011;1905;52.482;9.802;2024-02-21T08:03:24;23.17;;;13.30;;
3779;SDS011;1905;52.482;9.802;2024-02-21T08:05:52;29.37;;;12.07;;
3779;SDS011;1905;52.482;9.802;2024-02-21T08:08:22;30.37;;;13.07;;
3779;SDS011;1905;52.482;9.802;2024-02-21T08:10:51;27.33;;;12.87;;
3779;SDS011;1905;52.482;9.802;2024-02-21T08:13:20;29.67;;;12.27;;
3779;SDS011;1905;52.482;9.802;2024-02-21T08:15:48;24.60;;;12.53;;
3779;SDS011;1905;52.482;9.802;2024-02-21T08:18:17;24.83;;;10.43;;
3779;SDS011;1905;52.482;9.802;2024-02-21T08:20:45;25.13;;;13.23;;
3779;SDS011;1905;52.482;9.802;2024-02-21T08:23:15;26.87;;;11.23;;
3779;SDS011;1905;52.482;9.802;2024-02-21T08:25:46;23.20;;;11.50;;
3779;SDS011;1905;52.482;9.802;2024-02-21T08:28:14;26.43;;;11.93;;
3779;SDS011;1905;52.482;9.802;2024-02-21T08:30:42;24.40;;;9.97;;
3779;SDS011;1905;52.482;9.802;2024-02-21T08:33:15;22.37;;;11.00;;
3779;SDS011;1905;52.482;9.802;2024-02-21T08:35:44;22.17;;;11.03;;
3779;SDS011;1905;52.482;9.802;2024-02-21T08:38:12;26.60;;;11.03;;
3779;SDS011;1905;52.482;9.802;2024-02-21T08:40:40;20.83;;;10.50;;
3779;SDS011;1905;52.482;9.802;2024-02-21T08:43:10;20.77;;;10.50;;
3779;SDS011;1905;52.482;9.802;2024-02-21T08:45:38;26.80;;;13.00;;
3779;SDS011;1905;52.482;9.802;2024-02-21T08:48:06;25.60;;;11.80;;
3779;SDS011;1905;52.482;9.802;2024-02-21T08:50:35;25.27;;;11.10;;
3779;SDS011;1905;52.482;9.802;2024-02-21T08:53:05;31.43;;;12.63;;
3779;SDS011;1905;52.482;9.802;2024-02-21T08:55:33;27.30;;;14.60;;
3779;SDS011;1905;52.482;9.802;2024-02-21T08:58:02;19.30;;;10.97;;
3779;SDS011;1905;52.482;9.802;2024-02-21T09:00:32;23.30;;;11.70;;
3779;SDS011;1905;52.482;9.802;2024-02-21T09:03:01;23.63;;;11.47;;
3779;SDS011;1905;52.482;9.802;2024-02-21T09:05:31;26.10;;;12.33;;
3779;SDS011;1905;52.482;9.802;2024-02-21T09:08:02;19.77;;;10.70;;
3779;SDS011;1905;52.482;9.802;2024-02-21T09:10:31;23.20;;;10.70;;
3779;SDS011;1905;52.482;9.802;2024-02-21T09:12:59;25.70;;;10.03;;
3779;SDS011;1905;52.482;9.802;2024-02-21T09:15:31;22.93;;;10.27;;
3779;SDS011;1905;52.482;9.802;2024-02-21T09:18:00;23.17;;;9.13;;
3779;SDS011;1905;52.482;9.802;2024-02-21T09:20:29;19.17;;;9.50;;
3779;SDS011;1905;52.482;9.802;2024-02-21T09:22:58;17.17;;;8.37;;
3779;SDS011;1905;52.482;9.802;2024-02-21T09:25:26;24.70;;;9.67;;
3779;SDS011;1905;52.482;9.802;2024-02-21T09:27:54;27.27;;;9.20;;
3779;SDS011;1905;52.482;9.802;2024-02-21T09:30:25;17.37;;;7.30;;
3779;SDS011;1905;52.482;9.802;2024-02-21T09:32:54;19.50;;;8.47;;
3779;SDS011;1905;52.482;9.802;2024-02-21T09:35:25;15.07;;;7.87;;
3779;SDS011;1905;52.482;9.802;2024-02-21T09:37:54;18.10;;;7.60;;
3779;SDS011;1905;52.482;9.802;2024-02-21T09:40:22;18.20;;;7.50;;
3779;SDS011;1905;52.482;9.802;2024-02-21T09:42:51;17.43;;;6.97;;
3779;SDS011;1905;52.482;9.802;2024-02-21T09:45:26;16.33;;;6.50;;
3779;SDS011;1905;52.482;9.802;2024-02-21T09:47:59;17.73;;;7.17;;
3779;SDS011;1905;52.482;9.802;2024-02-21T09:50:38;17.97;;;7.37;;
3779;SDS011;1905;52.482;9.802;2024-02-21T09:53:08;13.77;;;6.83;;
3779;SDS011;1905;52.482;9.802;2024-02-21T09:55:39;16.23;;;6.60;;
3779;SDS011;1905;52.482;9.802;2024-02-21T09:58:08;16.70;;;6.13;;
3779;SDS011;1905;52.482;9.802;2024-02-21T10:00:37;17.10;;;5.90;;
3779;SDS011;1905;52.482;9.802;2024-02-21T10:03:06;16.60;;;8.03;;
3779;SDS011;1905;52.482;9.802;2024-02-21T10:05:36;12.53;;;5.80;;
3779;SDS011;1905;52.482;9.802;2024-02-21T10:08:05;13.23;;;5.10;;
3779;SDS011;1905;52.482;9.802;2024-02-21T10:10:40;13.33;;;5.90;;
3779;SDS011;1905;52.482;9.802;2024-02-21T10:13:10;15.43;;;5.40;;
3779;SDS011;1905;52.482;9.802;2024-02-21T10:15:38;16.23;;;5.83;;
3779;SDS011;1905;52.482;9.802;2024-02-21T10:18:07;14.37;;;5.70;;
3779;SDS011;1905;52.482;9.802;2024-02-21T10:20:36;14.50;;;5.10;;
3779;SDS011;1905;52.482;9.802;2024-02-21T10:23:04;13.53;;;4.90;;
3779;SDS011;1905;52.482;9.802;2024-02-21T10:25:36;10.37;;;4.93;;
3779;SDS011;1905;52.482;9.802;2024-02-21T10:28:08;14.33;;;5.93;;
3779;SDS011;1905;52.482;9.802;2024-02-21T10:30:48;14.90;;;5.40;;
3779;SDS011;1905;52.482;9.802;2024-02-21T10:33:19;12.70;;;5.30;;
3779;SDS011;1905;52.482;9.802;2024-02-21T10:35:49;12.87;;;5.03;;
3779;SDS011;1905;52.482;9.802;2024-02-21T10:38:16;15.13;;;4.93;;
3779;SDS011;1905;52.482;9.802;2024-02-21T10:40:44;16.00;;;5.30;;
3779;SDS011;1905;52.482;9.802;2024-02-21T10:43:15;11.17;;;4.80;;
3779;SDS011;1905;52.482;9.802;2024-02-21T10:45:46;13.73;;;5.30;;
3779;SDS011;1905;52.482;9.802;2024-02-21T10:48:16;12.27;;;4.67;;
3779;SDS011;1905;52.482;9.802;2024-02-21T10:50:56;11.00;;;5.30;;
3779;SDS011;1905;52.482;9.802;2024-02-21T10:53:29;13.60;;;4.40;;
3779;SDS011;1905;52.482;9.802;2024-02-21T10:56:11;17.77;;;5.20;;
3779;SDS011;1905;52.482;9.802;2024-02-21T10:58:50;10.00;;;4.37;;
3779;SDS011;1905;52.482;9.802;2024-02-21T11:01:18;11.07;;;4.37;;
3779;SDS011;1905;52.482;9.802;2024-02-21T11:03:49;11.90;;;4.73;;
3779;SDS011;1905;52.482;9.802;2024-02-21T11:06:20;13.80;;;3.93;;
3779;SDS011;1905;52.482;9.802;2024-02-21T11:08:59;8.60;;;3.77;;
3779;SDS011;1905;52.482;9.802;2024-02-21T11:11:30;10.73;;;4.27;;
3779;SDS011;1905;52.482;9.802;2024-02-21T11:14:04;13.27;;;4.57;;
3779;SDS011;1905;52.482;9.802;2024-02-21T11:16:37;11.03;;;3.50;;
3779;SDS011;1905;52.482;9.802;2024-02-21T11:19:09;11.63;;;3.50;;
3779;SDS011;1905;52.482;9.802;2024-02-21T11:21:47;9.07;;;3.43;;
3779;SDS011;1905;52.482;9.802;2024-02-21T11:24:25;9.23;;;3.13;;
3779;SDS011;1905;52.482;9.802;2024-02-21T11:26:54;9.20;;;3.27;;
3779;SDS011;1905;52.482;9.802;2024-02-21T11:29:23;12.03;;;3.93;;
3779;SDS011;1905;52.482;9.802;2024-02-21T11:31:52;11.83;;;3.83;;
3779;SDS011;1905;52.482;9.802;2024-02-21T11:34:22;14.33;;;3.83;;
3779;SDS011;1905;52.482;9.802;2024-02-21T11:36:51;9.97;;;3.50;;
3779;SDS011;1905;52.482;9.802;2024-02-21T11:39:20;11.20;;;3.53;;
3779;SDS011;1905;52.482;9.802;2024-02-21T11:42:02;8.67;;;3.17;;
3779;SDS011;1905;52.482;9.802;2024-02-21T11:44:32;12.13;;;3.40;;
3779;SDS011;1905;52.482;9.802;2024-02-21T11:47:01;8.43;;;3.03;;
3779;SDS011;1905;52.482;9.802;2024-02-21T11:49:35;9.27;;;2.63;;
3779;SDS011;1905;52.482;9.802;2024-02-21T11:52:05;8.97;;;3.10;;
3779;SDS011;1905;52.482;9.802;2024-02-21T11:54:34;8.70;;;2.50;;
3779;SDS011;1905;52.482;9.802;2024-02-21T11:57:02;12.37;;;3.10;;
3779;SDS011;1905;52.482;9.802;2024-02-21T11:59:32;8.33;;;2.70;;
3779;SDS011;1905;52.482;9.802;2024-02-21T12:02:00;8.43;;;2.50;;
3779;SDS011;1905;52.482;9.802;2024-02-21T12:04:31;9.93;;;3.33;;
3779;SDS011;1905;52.482;9.802;2024-02-21T12:07:00;7.30;;;2.80;;
3779;SDS011;1905;52.482;9.802;2024-02-21T12:09:30;8.83;;;2.70;;
3779;SDS011;1905;52.482;9.802;2024-02-21T12:11:58;7.87;;;2.30;;
3779;SDS011;1905;52.482;9.802;2024-02-21T12:14:27;13.10;;;4.57;;
3779;SDS011;1905;52.482;9.802;2024-02-21T12:16:57;10.63;;;2.73;;
3779;SDS011;1905;52.482;9.802;2024-02-21T12:19:26;9.00;;;3.20;;
3779;SDS011;1905;52.482;9.802;2024-02-21T12:21:58;7.00;;;2.17;;
3779;SDS011;1905;52.482;9.802;2024-02-21T12:24:27;8.10;;;2.37;;
3779;SDS011;1905;52.482;9.802;2024-02-21T12:26:57;8.70;;;2.93;;
3779;SDS011;1905;52.482;9.802;2024-02-21T12:29:27;8.33;;;2.80;;
3779;SDS011;1905;52.482;9.802;2024-02-21T12:31:57;19.30;;;4.47;;
3779;SDS011;1905;52.482;9.802;2024-02-21T12:34:25;8.57;;;2.73;;
3779;SDS011;1905;52.482;9.802;2024-02-21T12:37:11;8.80;;;3.03;;
3779;SDS011;1905;52.482;9.802;2024-02-21T12:39:42;10.23;;;2.73;;
3779;SDS011;1905;52.482;9.802;2024-02-21T12:42:11;11.60;;;3.07;;
3779;SDS011;1905;52.482;9.802;2024-02-21T12:44:38;8.50;;;3.17;;
3779;SDS011;1905;52.482;9.802;2024-02-21T12:47:06;6.57;;;2.50;;
3779;SDS011;1905;52.482;9.802;2024-02-21T12:49:35;9.93;;;4.27;;
3779;SDS011;1905;52.482;9.802;2024-02-21T12:52:05;10.00;;;3.37;;
3779;SDS011;1905;52.482;9.802;2024-02-21T12:54:34;10.60;;;2.70;;
3779;SDS011;1905;52.482;9.802;2024-02-21T12:57:02;10.70;;;3.50;;
3779;SDS011;1905;52.482;9.802;2024-02-21T12:59:31;11.00;;;3.87;;
3779;SDS011;1905;52.482;9.802;2024-02-21T13:01:59;10.63;;;3.10;;
3779;SDS011;1905;52.482;9.802;2024-02-21T13:04:28;12.03;;;4.07;;
3779;SDS011;1905;52.482;9.802;2024-02-21T13:06:56;11.30;;;4.20;;
3779;SDS011;1905;52.482;9.802;2024-02-21T13:09:25;14.20;;;3.77;;
3779;SDS011;1905;52.482;9.802;2024-02-21T13:11:54;13.70;;;4.73;;
3779;SDS011;1905;52.482;9.802;2024-02-21T13:14:23;10.50;;;4.10;;
3779;SDS011;1905;52.482;9.802;2024-02-21T13:16:51;20.93;;;5.20;;
3779;SDS011;1905;52.482;9.802;2024-02-21T13:19:22;9.03;;;4.00;;
3779;SDS011;1905;52.482;9.802;2024-02-21T13:21:50;12.53;;;5.70;;
3779;SDS011;1905;52.482;9.802;2024-02-21T13:24:18;13.40;;;5.67;;
3779;SDS011;1905;52.482;9.802;2024-02-21T13:26:46;13.30;;;4.13;;
3779;SDS011;1905;52.482;9.802;2024-02-21T13:29:15;12.63;;;4.73;;
3779;SDS011;1905;52.482;9.802;2024-02-21T13:31:43;12.97;;;4.90;;
3779;SDS011;1905;52.482;9.802;2024-02-21T13:34:12;16.27;;;5.67;;
3779;SDS011;1905;52.482;9.802;2024-02-21T13:36:40;13.33;;;5.10;;
3779;SDS011;1905;52.482;9.802;2024-02-21T13:39:08;17.03;;;6.20;;
3779;SDS011;1905;52.482;9.802;2024-02-21T13:41:39;12.17;;;4.60;;
3779;SDS011;1905;52.482;9.802;2024-02-21T13:44:07;18.40;;;5.30;;
3779;SDS011;1905;52.482;9.802;2024-02-21T13:46:37;12.00;;;4.53;;
3779;SDS011;1905;52.482;9.802;2024-02-21T13:49:06;17.20;;;4.93;;
3779;SDS011;1905;52.482;9.802;2024-02-21T13:51:34;14.23;;;4.30;;
3779;SDS011;1905;52.482;9.802;2024-02-21T13:54:03;12.03;;;4.23;;
3779;SDS011;1905;52.482;9.802;2024-02-21T13:56:36;13.00;;;5.10;;
3779;SDS011;1905;52.482;9.802;2024-02-21T13:59:04;13.10;;;3.90;;
3779;SDS011;1905;52.482;9.802;2024-02-21T14:01:33;11.73;;;4.20;;
3779;SDS011;1905;52.482;9.802;2024-02-21T14:04:04;12.63;;;4.57;;
3779;SDS011;1905;52.482;9.802;2024-02-21T14:06:33;11.97;;;4.13;;
3779;SDS011;1905;52.482;9.802;2024-02-21T14:09:02;12.30;;;4.50;;
3779;SDS011;1905;52.482;9.802;2024-02-21T14:11:31;11.03;;;4.20;;
3779;SDS011;1905;52.482;9.802;2024-02-21T14:14:00;11.97;;;3.90;;
3779;SDS011;1905;52.482;9.802;2024-02-21T14:16:29;9.63;;;4.33;;
3779;SDS011;1905;52.482;9.802;2024-02-21T14:18:57;9.57;;;4.00;;
3779;SDS011;1905;52.482;9.802;2024-02-21T14:21:27;12.37;;;4.67;;
3779;SDS011;1905;52.482;9.802;2024-02-21T14:23:56;13.23;;;3.80;;
3779;SDS011;1905;52.482;9.802;2024-02-21T14:26:25;11.23;;;4.37;;
3779;SDS011;1905;52.482;9.802;2024-02-21T14:28:53;8.63;;;3.20;;
3779;SDS011;1905;52.482;9.802;2024-02-21T14:31:22;12.27;;;3.73;;
3779;SDS011;1905;52.482;9.802;2024-02-21T14:33:50;10.70;;;3.27;;
3779;SDS011;1905;52.482;9.802;2024-02-21T14:36:19;11.70;;;3.97;;
3779;SDS011;1905;52.482;9.802;2024-02-21T14:38:52;8.77;;;3.37;;
3779;SDS011;1905;52.482;9.802;2024-02-21T14:41:20;9.93;;;3.20;;
3779;SDS011;1905;52.482;9.802;2024-02-21T14:43:48;11.53;;;3.67;;
3779;SDS011;1905;52.482;9.802;2024-02-21T14:46:17;8.43;;;3.03;;
3779;SDS011;1905;52.482;9.802;2024-02-21T14:48:45;13.13;;;3.27;;
3779;SDS011;1905;52.482;9.802;2024-02-21T14:51:14;9.50;;;3.10;;
3779;SDS011;1905;52.482;9.802;2024-02-21T14:53:42;9.53;;;2.67;;
3779;SDS011;1905;52.482;9.802;2024-02-21T14:56:13;10.90;;;2.70;;
3779;SDS011;1905;52.482;9.802;2024-02-21T14:58:42;7.60;;;2.10;;
3779;SDS011;1905;52.482;9.802;2024-02-21T15:01:10;10.33;;;2.90;;
3779;SDS011;1905;52.482;9.802;2024-02-21T15:03:40;8.10;;;2.30;;
3779;SDS011;1905;52.482;9.802;2024-02-21T15:06:09;8.10;;;2.57;;
3779;SDS011;1905;52.482;9.802;2024-02-21T15:08:38;11.63;;;2.67;;